Clearwater, South Carolina
Current Conditions -  °F | °C
As of 7:53 AM on Saturday 25 Oct 2014 (Local Time) from KDNL Reporting Station
Clear Clear  
Wind Chill: 51°   Ceiling: Unl
Heat Index: 51°   Visibility: 10mi
Dew Point: 45°   Wind: 7mph
Humidity: 80%   Direction: 330°NNW
Pressure: 30.04"   Gusts: NA
Location:  33.51°N, 81.91°W
Report Text: KDNL 251153Z AUTO 33006KT 10SM CLR 11/07 A3004 RMK AO2 SLP171 T01060072 10139 20100 53012
Loading
Personal Weather Stations






























Interactive Weather Map
Tropical Storm Tracking
New forecast layout! Learn more

10-Day Weather Forecast

Advertisements
Track Severe Weather on mobile